createdAt,value
2023-03-02T00:00:51.372Z,25.46
2023-03-02T00:03:29.321Z,25.51
2023-03-02T00:06:37.561Z,25.45
2023-03-02T00:09:26.349Z,25.42
2023-03-02T00:12:15.363Z,25.39
2023-03-02T00:20:57.297Z,25.32
2023-03-02T00:23:46.740Z,25.31
2023-03-02T00:26:34.737Z,25.34
2023-03-02T00:29:45.750Z,25.32
2023-03-02T00:32:52.309Z,25.35
2023-03-02T00:38:49.276Z,25.25
2023-03-02T00:41:34.442Z,25.27
2023-03-02T00:44:45.896Z,25.27
2023-03-02T00:47:32.347Z,25.22
2023-03-02T00:50:38.424Z,25.17
2023-03-02T00:56:45.026Z,25.17
2023-03-02T00:59:34.988Z,25.18
2023-03-02T01:02:52.837Z,25.20
2023-03-02T01:05:30.903Z,25.21
2023-03-02T01:11:26.616Z,25.15
2023-03-02T01:14:05.437Z,25.14
2023-03-02T01:16:42.263Z,25.11
2023-03-02T01:19:42.293Z,25.08
2023-03-02T01:22:17.170Z,25.04
2023-03-02T01:25:13.120Z,25.03
2023-03-02T01:27:47.351Z,25.01
2023-03-02T01:30:27.598Z,24.98
2023-03-02T01:33:08.997Z,24.98
2023-03-02T01:38:34.943Z,24.94
2023-03-02T01:41:23.042Z,24.92
2023-03-02T01:44:07.088Z,24.88
2023-03-02T01:46:43.543Z,24.88
2023-03-02T01:52:14.965Z,24.84
2023-03-02T01:54:51.908Z,24.79
2023-03-02T01:57:29.749Z,24.80
2023-03-02T02:00:12.658Z,24.77
2023-03-02T02:02:56.536Z,24.71
2023-03-02T02:08:36.562Z,24.66
2023-03-02T02:11:09.293Z,24.59
2023-03-02T02:13:40.796Z,24.53
2023-03-02T02:16:24.012Z,24.56
2023-03-02T02:19:06.451Z,24.52
2023-03-02T02:21:46.277Z,24.53
2023-03-02T02:27:39.444Z,24.44
2023-03-02T02:33:07.567Z,24.37
2023-03-02T02:35:50.852Z,24.36
2023-03-02T02:38:36.679Z,24.36
2023-03-02T02:41:25.478Z,24.32
2023-03-02T02:44:05.076Z,24.29
2023-03-02T02:46:36.601Z,24.29
2023-03-02T02:49:35.213Z,24.25
2023-03-02T02:52:14.346Z,24.19
2023-03-02T02:55:02.592Z,24.20
2023-03-02T02:57:51.941Z,24.18
2023-03-02T03:00:30.942Z,24.12
2023-03-02T03:03:55.527Z,24.08
2023-03-02T03:06:47.482Z,24.08
2023-03-02T03:09:36.335Z,24.02
2023-03-02T03:15:20.706Z,23.98
2023-03-02T03:18:08.976Z,23.92
2023-03-02T03:20:40.210Z,23.92
2023-03-02T03:23:12.627Z,23.94
2023-03-02T03:25:54.477Z,23.90
2023-03-02T03:28:37.939Z,23.88
2023-03-02T03:34:07.200Z,23.85
2023-03-02T03:37:23.681Z,23.79
2023-03-02T03:40:13.691Z,23.79
2023-03-02T03:42:55.342Z,23.78
2023-03-02T03:45:28.835Z,23.74
2023-03-02T03:48:13.975Z,23.71
2023-03-02T03:50:46.204Z,23.71
2023-03-02T03:56:23.495Z,23.65
2023-03-02T03:59:11.166Z,23.62
2023-03-02T04:02:05.415Z,23.64
2023-03-02T04:04:48.143Z,23.64
2023-03-02T04:07:29.986Z,23.58
2023-03-02T04:10:07.835Z,23.59
2023-03-02T04:12:48.188Z,23.57
2023-03-02T04:15:23.606Z,23.54
2023-03-02T04:18:02.267Z,23.50
2023-03-02T04:20:38.576Z,23.51
2023-03-02T04:23:13.253Z,23.50
2023-03-02T04:25:45.925Z,23.47
2023-03-02T04:28:23.251Z,23.44
2023-03-02T04:31:08.341Z,23.43
2023-03-02T04:36:38.757Z,23.43
2023-03-02T04:39:21.971Z,23.44
2023-03-02T04:41:56.243Z,23.47
2023-03-02T04:44:37.833Z,23.51
2023-03-02T04:47:13.964Z,23.54
2023-03-02T04:49:53.174Z,23.51
2023-03-02T04:52:25.752Z,23.45
2023-03-02T04:54:56.772Z,23.44
2023-03-02T04:57:31.525Z,23.41
2023-03-02T05:00:08.442Z,23.44
2023-03-02T05:02:44.109Z,23.51
2023-03-02T05:05:29.267Z,23.57
2023-03-02T05:08:08.648Z,23.59
2023-03-02T05:10:50.133Z,23.62
2023-03-02T05:13:23.478Z,23.65
2023-03-02T05:15:55.022Z,23.62
2023-03-02T05:18:33.279Z,23.65
2023-03-02T05:21:05.625Z,23.65
2023-03-02T05:23:45.904Z,23.62
2023-03-02T05:26:26.177Z,23.62
2023-03-02T05:29:02.582Z,23.61
2023-03-02T05:32:03.842Z,23.64
2023-03-02T05:35:04.367Z,23.61
2023-03-02T05:37:58.591Z,23.57
2023-03-02T05:41:10.369Z,23.57
2023-03-02T05:43:50.684Z,23.54
2023-03-02T05:46:26.527Z,23.48
2023-03-02T05:49:01.292Z,23.45
2023-03-02T05:51:48.523Z,23.43
2023-03-02T05:54:28.676Z,23.45
2023-03-02T05:57:04.755Z,23.38
2023-03-02T05:59:53.471Z,23.38
2023-03-02T06:02:27.587Z,23.37
2023-03-02T06:05:10.193Z,23.37
2023-03-02T06:07:44.996Z,23.31
2023-03-02T06:10:22.499Z,23.28
2023-03-02T06:13:20.614Z,23.21
2023-03-02T06:16:04.662Z,23.13
2023-03-02T06:19:10.938Z,23.14
2023-03-02T06:21:44.993Z,23.11
2023-03-02T06:24:25.262Z,23.08
2023-03-02T06:27:00.113Z,23.06
2023-03-02T06:29:34.801Z,23.02
2023-03-02T06:32:21.059Z,22.96
2023-03-02T06:34:53.455Z,22.94
2023-03-02T06:37:28.162Z,22.96
2023-03-02T06:40:10.387Z,22.97
2023-03-02T06:43:02.044Z,22.99
2023-03-02T06:45:36.093Z,23.02
2023-03-02T06:48:07.700Z,23.03
2023-03-02T06:50:47.622Z,23.00
2023-03-02T06:53:23.144Z,22.99
2023-03-02T06:56:08.737Z,22.94
2023-03-02T06:58:45.062Z,22.93
2023-03-02T07:01:21.700Z,22.90
2023-03-02T07:03:54.874Z,22.86
2023-03-02T07:06:44.614Z,22.86
2023-03-02T07:09:28.175Z,22.97
2023-03-02T07:12:07.351Z,22.87
2023-03-02T07:14:46.987Z,22.82
2023-03-02T07:17:26.256Z,22.74
2023-03-02T07:19:56.636Z,22.76
2023-03-02T07:22:29.772Z,22.74
2023-03-02T07:25:08.661Z,22.66
2023-03-02T07:27:44.842Z,22.66
2023-03-02T07:30:26.315Z,22.63
2023-03-02T07:33:00.614Z,22.67
2023-03-02T07:35:31.428Z,22.67
2023-03-02T07:38:05.859Z,22.76
2023-03-02T07:40:36.848Z,22.73
2023-03-02T07:43:09.136Z,22.79
2023-03-02T07:45:46.622Z,22.79
2023-03-02T07:51:07.204Z,22.82
2023-03-02T07:53:54.247Z,22.79
2023-03-02T07:56:39.581Z,22.73
2023-03-02T07:59:22.726Z,22.72
2023-03-02T08:02:04.935Z,22.69
2023-03-02T08:04:49.446Z,22.67
2023-03-02T08:07:32.301Z,22.67
2023-03-02T08:10:07.935Z,22.63
2023-03-02T08:12:38.631Z,22.57
2023-03-02T08:18:08.136Z,22.55
2023-03-02T08:20:42.860Z,22.55
2023-03-02T08:23:34.616Z,22.48
2023-03-02T08:26:17.406Z,22.48
2023-03-02T08:28:51.576Z,22.45
2023-03-02T08:31:22.502Z,22.45
2023-03-02T08:34:04.000Z,22.43
2023-03-02T08:36:35.695Z,22.45
2023-03-02T08:39:09.384Z,22.39
2023-03-02T08:41:43.677Z,22.38
2023-03-02T08:44:24.237Z,22.33
2023-03-02T08:46:57.394Z,22.33
2023-03-02T08:49:40.061Z,22.35
2023-03-02T08:52:16.698Z,22.28
2023-03-02T08:57:47.401Z,22.25
2023-03-02T09:00:25.819Z,22.28
2023-03-02T09:03:06.339Z,22.26
2023-03-02T09:05:47.618Z,22.28
2023-03-02T09:08:24.377Z,22.23
2023-03-02T09:11:00.547Z,22.22
2023-03-02T09:13:32.457Z,22.23
2023-03-02T09:16:19.691Z,22.22
2023-03-02T09:18:56.620Z,22.21
2023-03-02T09:21:39.114Z,22.26
2023-03-02T09:24:10.181Z,22.26
2023-03-02T09:26:46.936Z,22.29
2023-03-02T09:29:18.391Z,22.26
2023-03-02T09:32:19.955Z,22.26
2023-03-02T09:34:58.504Z,22.26
2023-03-02T09:37:37.898Z,22.25
2023-03-02T09:40:21.459Z,22.32
2023-03-02T09:43:24.683Z,22.35
2023-03-02T09:46:14.037Z,22.46
2023-03-02T09:52:50.174Z,22.63
2023-03-02T09:55:34.334Z,22.73
2023-03-02T09:58:13.538Z,22.83
2023-03-02T10:00:54.251Z,22.90
2023-03-02T10:04:01.539Z,22.93
2023-03-02T10:06:45.289Z,22.96
2023-03-02T10:12:41.683Z,23.14
2023-03-02T10:16:03.434Z,23.23
2023-03-02T10:19:09.895Z,23.24
2023-03-02T10:21:44.602Z,23.37
2023-03-02T10:25:09.987Z,23.45
2023-03-02T10:28:00.483Z,23.48
2023-03-02T10:30:44.937Z,23.55
2023-03-02T10:33:30.901Z,23.67
2023-03-02T10:36:08.012Z,23.85
2023-03-02T10:38:45.815Z,24.08
2023-03-02T10:41:25.559Z,25.34
2023-03-02T10:44:14.033Z,26.56
2023-03-02T10:49:52.039Z,27.59
2023-03-02T10:52:34.567Z,27.79
2023-03-02T10:58:37.900Z,28.41
2023-03-02T11:01:31.434Z,28.23
2023-03-02T11:04:45.695Z,28.55
2023-03-02T11:08:02.208Z,28.78
2023-03-02T11:11:12.276Z,29.14
2023-03-02T11:14:03.459Z,28.96
2023-03-02T11:16:51.850Z,29.08
2023-03-02T11:23:12.703Z,29.66
2023-03-02T11:26:30.756Z,29.81
2023-03-02T11:30:04.905Z,30.06
2023-03-02T11:32:51.646Z,29.98
2023-03-02T11:35:55.356Z,30.14
2023-03-02T11:38:36.548Z,29.91
2023-03-02T11:41:36.468Z,30.00
2023-03-02T11:44:26.175Z,29.63
2023-03-02T11:47:08.527Z,29.70
2023-03-02T11:50:08.409Z,30.00
2023-03-02T12:08:59.391Z,30.55
2023-03-02T12:11:41.359Z,30.82
2023-03-02T12:15:04.057Z,31.06
2023-03-02T12:17:37.753Z,31.06
2023-03-02T12:20:11.348Z,31.20
2023-03-02T12:22:47.722Z,31.20
2023-03-02T12:25:48.174Z,31.15
2023-03-02T12:31:47.012Z,31.03
2023-03-02T12:44:38.581Z,31.03
2023-03-02T12:50:29.604Z,30.76
2023-03-02T12:53:26.651Z,30.88
2023-03-02T12:56:23.591Z,31.18
2023-03-02T12:59:16.579Z,31.27
2023-03-02T13:02:29.142Z,31.23
2023-03-02T13:08:26.477Z,30.79
2023-03-02T13:11:00.826Z,30.76
2023-03-02T13:13:48.366Z,31.20
2023-03-02T13:16:58.909Z,31.42
2023-03-02T13:19:47.910Z,31.90
2023-03-02T13:25:33.138Z,31.22
2023-03-02T13:28:14.902Z,31.56
2023-03-02T13:30:52.549Z,31.73
2023-03-02T13:36:37.961Z,31.15
2023-03-02T13:39:43.363Z,31.42
2023-03-02T13:42:41.831Z,31.54
2023-03-02T13:45:43.486Z,31.43
2023-03-02T13:48:25.956Z,31.30
2023-03-02T13:51:20.591Z,31.30
2023-03-02T13:54:27.316Z,31.42
2023-03-02T13:57:16.599Z,31.22
2023-03-02T14:05:56.174Z,31.12
2023-03-02T14:08:37.771Z,31.06
2023-03-02T14:11:20.067Z,31.13
2023-03-02T14:14:27.764Z,31.06
2023-03-02T14:17:42.005Z,31.27
2023-03-02T14:20:22.628Z,31.37
2023-03-02T14:26:39.350Z,31.06
2023-03-02T14:29:53.944Z,30.69
2023-03-02T14:32:51.703Z,30.96
2023-03-02T14:35:29.476Z,31.16
2023-03-02T14:41:03.375Z,31.09
2023-03-02T14:43:49.913Z,30.81
2023-03-02T14:46:34.123Z,30.79
2023-03-02T14:52:08.182Z,30.86
2023-03-02T14:54:47.424Z,30.59
2023-03-02T15:00:51.127Z,30.34
2023-03-02T15:06:49.581Z,30.55
2023-03-02T15:09:29.830Z,30.76
2023-03-02T15:12:31.310Z,30.79
2023-03-02T15:15:07.775Z,30.95
2023-03-02T15:18:09.687Z,30.69
2023-03-02T15:20:49.991Z,30.55
2023-03-02T15:23:34.247Z,30.44
2023-03-02T15:26:11.164Z,30.54
2023-03-02T15:35:02.665Z,30.38
2023-03-02T15:37:43.653Z,30.58
2023-03-02T15:40:18.574Z,30.74
2023-03-02T15:49:01.043Z,31.27
2023-03-02T15:52:02.764Z,31.44
2023-03-02T15:54:37.693Z,31.49
2023-03-02T15:57:22.160Z,32.01
2023-03-02T16:02:51.244Z,31.00
2023-03-02T16:05:24.754Z,30.98
2023-03-02T16:08:23.958Z,31.15
2023-03-02T16:11:04.498Z,31.13
2023-03-02T16:13:39.526Z,31.87
2023-03-02T16:16:25.140Z,32.04
2023-03-02T16:19:07.617Z,32.01
2023-03-02T16:24:34.594Z,32.03
2023-03-02T16:27:16.073Z,31.27
2023-03-02T16:29:54.777Z,31.08
2023-03-02T16:32:30.115Z,30.68
2023-03-02T16:35:04.500Z,31.06
2023-03-02T16:37:44.936Z,31.08
2023-03-02T16:40:16.268Z,30.71
2023-03-02T16:42:50.887Z,30.95
2023-03-02T16:45:24.077Z,30.78
2023-03-02T16:48:05.571Z,30.55
2023-03-02T16:50:42.065Z,30.45
2023-03-02T16:53:17.891Z,30.42
2023-03-02T16:55:50.218Z,30.37
2023-03-02T16:58:40.217Z,29.98
2023-03-02T17:01:18.405Z,30.06
2023-03-02T17:03:52.068Z,30.01
2023-03-02T17:06:28.813Z,29.93
2023-03-02T17:09:01.718Z,29.65
2023-03-02T17:11:33.239Z,29.40
2023-03-02T17:14:03.281Z,29.32
2023-03-02T17:16:36.529Z,29.29
2023-03-02T17:19:11.816Z,29.16
2023-03-02T17:21:51.129Z,29.40
2023-03-02T17:24:27.327Z,29.56
2023-03-02T17:27:22.761Z,29.88
2023-03-02T17:30:02.871Z,31.09
2023-03-02T17:33:10.416Z,31.57
2023-03-02T17:36:14.893Z,31.47
2023-03-02T17:38:55.756Z,31.42
2023-03-02T17:41:37.569Z,31.03
2023-03-02T17:44:15.107Z,30.92
2023-03-02T17:46:49.129Z,30.75
2023-03-02T17:49:42.663Z,30.78
2023-03-02T17:52:46.097Z,30.93
2023-03-02T17:55:19.600Z,30.85
2023-03-02T17:57:56.584Z,31.03
2023-03-02T18:00:35.343Z,31.20
2023-03-02T18:03:13.803Z,31.03
2023-03-02T18:05:47.321Z,30.35
2023-03-02T18:11:27.464Z,30.14
2023-03-02T18:14:00.364Z,30.27
2023-03-02T18:16:34.436Z,30.13
2023-03-02T18:19:12.805Z,30.41
2023-03-02T18:22:11.463Z,30.34
2023-03-02T18:24:46.381Z,29.88
2023-03-02T18:27:32.254Z,29.81
2023-03-02T18:30:25.932Z,29.80
2023-03-02T18:33:00.933Z,29.73
2023-03-02T18:35:39.805Z,29.66
2023-03-02T18:38:19.203Z,29.40
2023-03-02T18:41:04.452Z,29.40
2023-03-02T18:43:42.077Z,29.67
2023-03-02T18:46:43.215Z,29.81
2023-03-02T18:49:31.553Z,29.67
2023-03-02T18:52:07.095Z,29.73
2023-03-02T18:54:41.370Z,29.45
2023-03-02T18:57:23.343Z,29.08
2023-03-02T19:00:02.087Z,28.78
2023-03-02T19:02:38.441Z,28.91
2023-03-02T19:05:35.886Z,29.11
2023-03-02T19:08:22.445Z,29.12
2023-03-02T19:10:54.559Z,29.22
2023-03-02T19:13:28.767Z,29.05
2023-03-02T19:16:08.748Z,28.96
2023-03-02T19:18:40.870Z,28.74
2023-03-02T19:26:48.873Z,28.62
2023-03-02T19:29:19.259Z,28.55
2023-03-02T19:31:50.689Z,28.48
2023-03-02T19:34:22.027Z,28.50
2023-03-02T19:36:52.303Z,28.58
2023-03-02T19:39:22.776Z,28.68
2023-03-02T19:41:53.226Z,28.68
2023-03-02T19:44:24.597Z,28.54
2023-03-02T19:46:55.067Z,28.45
2023-03-02T19:49:26.076Z,28.45
2023-03-02T19:51:57.659Z,28.40
2023-03-02T19:54:30.282Z,28.20
2023-03-02T19:57:01.199Z,28.10
2023-03-02T19:59:32.945Z,28.03
2023-03-02T20:02:04.737Z,28.07
2023-03-02T20:04:37.000Z,28.03
2023-03-02T20:07:08.725Z,27.89
2023-03-02T20:09:38.999Z,27.86
2023-03-02T20:12:10.492Z,27.78
2023-03-02T20:14:42.775Z,27.73
2023-03-02T20:17:13.285Z,27.62
2023-03-02T20:19:46.189Z,27.58
2023-03-02T20:22:17.114Z,27.49
2023-03-02T20:24:48.239Z,27.48
2023-03-02T20:27:20.133Z,27.46
2023-03-02T20:29:51.098Z,27.35
2023-03-02T20:32:21.729Z,27.31
2023-03-02T20:34:52.587Z,27.19
2023-03-02T20:37:26.735Z,27.16
2023-03-02T20:40:03.706Z,27.07
2023-03-02T20:42:36.944Z,27.05
2023-03-02T20:45:10.205Z,27.01
2023-03-02T20:47:41.226Z,26.97
2023-03-02T20:50:19.505Z,26.98
2023-03-02T20:52:50.986Z,26.95
2023-03-02T20:55:24.473Z,26.90
2023-03-02T20:57:56.717Z,26.90
2023-03-02T21:00:32.074Z,26.84
2023-03-02T21:03:03.414Z,26.81
2023-03-02T21:05:42.517Z,26.83
2023-03-02T21:08:25.418Z,26.81
2023-03-02T21:10:59.829Z,26.85
2023-03-02T21:13:31.975Z,26.80
2023-03-02T21:16:08.771Z,26.76
2023-03-02T21:18:43.162Z,26.78
2023-03-02T21:21:19.229Z,26.84
2023-03-02T21:23:54.256Z,26.91
2023-03-02T21:26:29.265Z,26.98
2023-03-02T21:29:03.076Z,26.99
2023-03-02T21:34:28.831Z,26.94
2023-03-02T21:37:07.036Z,26.97
2023-03-02T21:39:39.346Z,26.94
2023-03-02T21:42:13.609Z,27.02
2023-03-02T21:44:45.845Z,27.05
2023-03-02T21:47:21.934Z,27.08
2023-03-02T21:49:58.965Z,27.08
2023-03-02T21:52:41.795Z,27.09
2023-03-02T21:55:20.465Z,26.99
2023-03-02T21:58:02.120Z,26.92
2023-03-02T22:00:43.088Z,26.87
2023-03-02T22:03:17.059Z,26.74
2023-03-02T22:05:54.692Z,26.64
2023-03-02T22:08:30.553Z,26.46
2023-03-02T22:11:04.448Z,26.33
2023-03-02T22:13:40.295Z,26.16
2023-03-02T22:16:30.581Z,26.02
2023-03-02T22:19:03.670Z,25.69
2023-03-02T22:21:45.104Z,25.45
2023-03-02T22:24:35.521Z,25.42
2023-03-02T22:27:39.892Z,25.41
2023-03-02T22:30:34.707Z,25.27
2023-03-02T22:33:20.823Z,25.27
2023-03-02T22:36:01.411Z,25.30
2023-03-02T22:38:36.538Z,25.30
2023-03-02T22:41:26.200Z,25.27
2023-03-02T22:44:06.529Z,25.21
2023-03-02T22:47:11.654Z,25.22
2023-03-02T22:49:46.945Z,25.11
2023-03-02T22:52:28.047Z,25.14
2023-03-02T22:55:10.974Z,25.11
2023-03-02T22:57:47.565Z,25.10
2023-03-02T23:00:25.589Z,25.08
2023-03-02T23:03:01.786Z,25.11
2023-03-02T23:05:38.086Z,25.14
2023-03-02T23:08:26.043Z,25.10
2023-03-02T23:11:04.403Z,25.11
2023-03-02T23:13:43.166Z,25.03
2023-03-02T23:16:26.367Z,25.08
2023-03-02T23:19:12.537Z,25.07
2023-03-02T23:21:49.442Z,25.12
2023-03-02T23:24:27.027Z,25.21
2023-03-02T23:27:01.693Z,25.20
2023-03-02T23:29:35.536Z,25.11
2023-03-02T23:32:18.301Z,25.06
2023-03-02T23:34:56.422Z,25.07
2023-03-02T23:37:35.333Z,25.11
2023-03-02T23:40:33.525Z,25.10
2023-03-02T23:43:09.119Z,25.08
2023-03-02T23:45:50.223Z,25.07
2023-03-02T23:48:24.024Z,25.06
2023-03-02T23:51:10.796Z,25.01
2023-03-02T23:53:47.459Z,24.91
2023-03-02T23:56:20.623Z,24.79
2023-03-02T23:58:54.412Z,24.44
